Pagrindinis puslapis
METAR-TAF:

METAR-TAF

Oro uostai :

Sučava, Rumunija

platuma: 47-39N, ilguma: 026-15E, Aukštis: 351 m

Dabartinis oras

Ataskaita buvo paskelbta 10 minutes, ne 17:00 UTC
Vėjas 19 kt iš Šiaurės/Šiaurės Vakarų
Temperatūra 3°C
Drėgmė 65%
Slėgis 1018 hPa
Matomumas 10 km arba daugiau
Išsisklaidę debesys ne aukštis 4700 ft

METAR: LRSV 221700Z 33019KT 9999 SCT047 03/M03 Q1018

Laikas: 19:10 (17:10 UTC)

Prognozė

Ataskaita buvo paskelbta 3 valandos ir 10 minutes, ne 14:00 UTC
Prognozė galioja nuo 22 metu 15 UTC su 22 metu 24 UTC
Vėjas 14 kt iš Šiaurės Vakarų
Matomumas 10 km arba daugiau
nėra debesų žemiau 1500 m ir nėra kamuolinių lietaus debesų
Laikinai
nuo 22 metu 18 UTC su 22 metu 24 UTC
Vėjas 18 kt iš Šiaurės Vakarų su gūsio iki 28 kt
Tikimybė 40% :
Laikinai
nuo 22 metu 21 UTC su 22 metu 24 UTC
Matomumas: 5000 m
Su prošvaistėmis ne aukštis 500 ft
Su prošvaistėmis ne aukštis 2000 ft
sniegas

TAF: LRSV 221400Z 2215/2224 31014KT CAVOK TEMPO 2218/2224 32018G28KT PROB40 TEMPO 2221/2224 5000 -SN BKN005 BKN020

Orai ataskaitas ir orų prognozės (METAR, TAF).

turimą stotys yra geltonos ir raudonos taškus žemėlapyje.

Perkelti pele per norėdami pamatyti stoties vardą.

Tada spustelėkite, norėdami matyti oro stebėjimo ir prognozės.

Norėdami pakeisti žemėlapį: spustelėkite ant žalios mygtukų su juodo kryžiaus žemyn,; žalią mygtuką su brūkšneliu, jei norite nutolinti; arba žalių rodyklių gretimoms žemėlapius.


METAR-TAF: